createdAt,value
2023-04-19T00:00:24.845Z,11.75
2023-04-19T00:02:53.316Z,11.77
2023-04-19T00:05:21.801Z,12.35
2023-04-19T00:07:50.254Z,11.77
2023-04-19T00:10:18.445Z,11.88
2023-04-19T00:12:46.804Z,11.13
2023-04-19T00:15:15.174Z,11.75
2023-04-19T00:17:43.278Z,13.18
2023-04-19T00:20:12.015Z,10.93
2023-04-19T00:25:08.622Z,11.77
2023-04-19T00:27:36.918Z,13.05
2023-04-19T00:30:06.590Z,12.57
2023-04-19T00:32:35.053Z,10.98
2023-04-19T00:35:03.359Z,12.18
2023-04-19T00:37:33.284Z,11.90
2023-04-19T00:40:01.787Z,12.65
2023-04-19T00:42:29.967Z,12.73
2023-04-19T00:44:58.276Z,12.57
2023-04-19T00:47:26.674Z,12.82
2023-04-19T00:49:55.222Z,13.27
2023-04-19T00:52:23.711Z,12.43
2023-04-19T00:54:52.649Z,13.63
2023-04-19T00:57:22.502Z,12.50
2023-04-19T00:59:52.268Z,13.45
2023-04-19T01:04:48.861Z,12.73
2023-04-19T01:07:17.644Z,13.18
2023-04-19T01:09:46.801Z,12.68
2023-04-19T01:12:15.100Z,12.93
2023-04-19T01:14:44.653Z,13.18
2023-04-19T01:17:13.391Z,12.02
2023-04-19T01:19:42.728Z,12.52
2023-04-19T01:22:11.157Z,13.07
2023-04-19T01:24:39.284Z,11.70
2023-04-19T01:27:07.457Z,11.60
2023-04-19T01:29:36.965Z,12.02
2023-04-19T01:32:05.500Z,12.15
2023-04-19T01:34:33.629Z,12.10
2023-04-19T01:37:01.952Z,13.07
2023-04-19T01:39:30.558Z,12.18
2023-04-19T01:44:26.669Z,12.27
2023-04-19T01:46:55.032Z,11.75
2023-04-19T01:49:23.205Z,11.85
2023-04-19T01:51:51.574Z,12.35
2023-04-19T01:54:19.674Z,12.27
2023-04-19T01:56:50.780Z,11.65
2023-04-19T01:59:19.209Z,11.25
2023-04-19T02:01:47.349Z,13.00
2023-04-19T02:04:15.802Z,12.70
2023-04-19T02:06:44.150Z,12.95
2023-04-19T02:09:12.503Z,12.38
2023-04-19T02:11:43.445Z,11.15
2023-04-19T02:14:11.757Z,11.60
2023-04-19T02:16:39.902Z,11.75
2023-04-19T02:19:08.216Z,11.98
2023-04-19T02:21:36.347Z,12.43
2023-04-19T02:24:04.825Z,10.80
2023-04-19T02:26:32.903Z,12.68
2023-04-19T02:29:01.314Z,10.70
2023-04-19T02:31:29.463Z,12.48
2023-04-19T02:33:57.687Z,11.88
2023-04-19T02:36:25.883Z,12.27
2023-04-19T02:38:56.136Z,12.13
2023-04-19T02:41:24.378Z,12.52
2023-04-19T02:43:52.538Z,11.15
2023-04-19T02:46:20.776Z,12.48
2023-04-19T02:48:48.908Z,11.38
2023-04-19T02:51:18.052Z,12.20
2023-04-19T02:53:46.203Z,10.80
2023-04-19T02:56:14.398Z,11.15
2023-04-19T02:58:42.628Z,10.90
2023-04-19T03:01:14.651Z,11.35
2023-04-19T03:03:43.336Z,11.15
2023-04-19T03:06:11.653Z,10.13
2023-04-19T03:08:40.136Z,11.63
2023-04-19T03:11:08.601Z,10.80
2023-04-19T03:13:36.707Z,11.13
2023-04-19T03:16:05.332Z,10.32
2023-04-19T03:21:05.129Z,9.98
2023-04-19T03:23:41.546Z,10.73
2023-04-19T03:26:10.745Z,11.50
2023-04-19T03:28:51.092Z,11.10
2023-04-19T03:31:24.997Z,11.15
2023-04-19T03:33:54.558Z,9.93
2023-04-19T03:36:28.195Z,10.13
2023-04-19T03:38:56.429Z,11.15
2023-04-19T03:41:26.090Z,9.95
2023-04-19T03:44:18.388Z,10.35
2023-04-19T03:46:47.130Z,10.98
2023-04-19T03:49:18.205Z,10.90
2023-04-19T03:51:51.673Z,10.23
2023-04-19T03:54:19.875Z,10.52
2023-04-19T03:56:48.982Z,10.15
2023-04-19T03:59:17.466Z,10.27
2023-04-19T04:01:45.729Z,10.30
2023-04-19T04:04:14.528Z,9.50
2023-04-19T04:06:43.101Z,10.93
2023-04-19T04:09:11.471Z,9.52
2023-04-19T04:11:39.600Z,10.82
2023-04-19T04:14:08.006Z,9.23
2023-04-19T04:16:39.326Z,10.45
2023-04-19T04:19:08.506Z,8.95
2023-04-19T04:21:40.701Z,9.95
2023-04-19T04:24:09.844Z,9.27
2023-04-19T04:26:57.160Z,10.35
2023-04-19T04:29:29.134Z,9.55
2023-04-19T04:32:00.456Z,10.93
2023-04-19T04:34:36.193Z,9.68
2023-04-19T04:37:09.401Z,9.15
2023-04-19T04:39:39.653Z,8.77
2023-04-19T04:42:10.086Z,9.90
2023-04-19T04:44:38.738Z,10.32
2023-04-19T04:47:09.461Z,10.57
2023-04-19T04:49:43.721Z,10.15
2023-04-19T04:52:12.321Z,9.32
2023-04-19T04:57:26.095Z,9.40
2023-04-19T04:59:54.375Z,9.05
2023-04-19T05:02:23.353Z,9.32
2023-04-19T05:04:53.055Z,8.20
2023-04-19T05:07:21.189Z,8.73
2023-04-19T05:09:49.616Z,9.18
2023-04-19T05:12:23.294Z,8.65
2023-04-19T05:17:20.083Z,8.43
2023-04-19T05:19:48.444Z,8.57
2023-04-19T05:22:16.736Z,8.30
2023-04-19T05:24:45.044Z,7.97
2023-04-19T05:27:13.772Z,8.05
2023-04-19T05:29:42.078Z,8.95
2023-04-19T05:32:10.582Z,8.02
2023-04-19T05:34:45.956Z,8.27
2023-04-19T05:37:16.371Z,8.50
2023-04-19T05:39:44.915Z,8.90
2023-04-19T05:44:41.333Z,9.48
2023-04-19T05:47:10.762Z,7.60
2023-04-19T05:49:57.463Z,8.27
2023-04-19T05:52:35.122Z,8.05
2023-04-19T05:55:05.581Z,7.57
2023-04-19T05:57:35.485Z,9.20
2023-04-19T06:00:04.361Z,8.30
2023-04-19T06:02:41.494Z,7.40
2023-04-19T06:05:13.589Z,8.30
2023-04-19T06:07:47.077Z,9.00
2023-04-19T06:10:23.272Z,8.27
2023-04-19T06:12:51.449Z,8.40
2023-04-19T06:15:19.745Z,7.75
2023-04-19T06:17:48.294Z,8.38
2023-04-19T06:20:16.630Z,8.73
2023-04-19T06:22:46.546Z,8.48
2023-04-19T06:25:14.710Z,8.23
2023-04-19T06:27:43.006Z,8.60
2023-04-19T06:30:11.341Z,7.25
2023-04-19T06:32:39.632Z,7.25
2023-04-19T06:35:08.462Z,7.75
2023-04-19T06:40:04.933Z,7.93
2023-04-19T06:45:01.482Z,8.15
2023-04-19T06:47:30.378Z,7.80
2023-04-19T06:49:58.783Z,8.32
2023-04-19T06:52:27.169Z,7.50
2023-04-19T06:54:55.517Z,7.78
2023-04-19T06:57:23.759Z,9.18
2023-04-19T06:59:52.108Z,8.68
2023-04-19T07:02:20.218Z,7.25
2023-04-19T07:04:48.712Z,8.73
2023-04-19T07:07:17.156Z,8.40
2023-04-19T07:09:45.488Z,9.23
2023-04-19T07:12:13.607Z,8.85
2023-04-19T07:14:41.821Z,9.35
2023-04-19T07:17:10.179Z,9.15
2023-04-19T07:19:38.490Z,9.30
2023-04-19T07:22:06.687Z,10.82
2023-04-19T07:24:34.858Z,10.90
2023-04-19T07:27:03.142Z,11.60
2023-04-19T07:29:31.359Z,10.45
2023-04-19T07:31:59.805Z,10.05
2023-04-19T07:34:28.218Z,10.38
2023-04-19T07:36:56.474Z,11.18
2023-04-19T07:39:24.873Z,11.10
2023-04-19T07:41:53.069Z,11.13
2023-04-19T07:44:21.448Z,10.95
2023-04-19T07:46:50.194Z,11.63
2023-04-19T07:49:18.711Z,10.15
2023-04-19T07:51:47.013Z,10.73
2023-04-19T07:54:15.650Z,10.32
2023-04-19T07:59:12.128Z,9.68
2023-04-19T08:01:40.347Z,10.07
2023-04-19T08:04:09.004Z,10.38
2023-04-19T08:09:07.049Z,9.73
2023-04-19T08:11:35.252Z,10.32
2023-04-19T08:14:11.951Z,10.60
2023-04-19T08:19:17.827Z,9.63
2023-04-19T08:21:46.001Z,9.90
2023-04-19T08:24:14.458Z,10.63
2023-04-19T08:26:42.952Z,10.52
2023-04-19T08:29:11.361Z,9.27
2023-04-19T08:31:44.644Z,10.07
2023-04-19T08:34:13.074Z,9.38
2023-04-19T08:36:48.436Z,10.25
2023-04-19T08:39:31.517Z,10.15
2023-04-19T08:42:18.152Z,10.00
2023-04-19T08:45:13.704Z,10.63
2023-04-19T08:47:58.676Z,9.25
2023-04-19T08:53:12.022Z,9.82
2023-04-19T08:55:54.843Z,10.65
2023-04-19T09:01:08.178Z,9.80
2023-04-19T09:03:56.030Z,10.65
2023-04-19T09:06:29.415Z,10.43
2023-04-19T09:09:28.780Z,8.73
2023-04-19T09:12:02.152Z,9.38
2023-04-19T09:14:30.719Z,9.10
2023-04-19T09:17:17.724Z,9.80
2023-04-19T09:19:50.478Z,9.50
2023-04-19T09:22:19.231Z,9.27
2023-04-19T09:27:36.824Z,8.43
2023-04-19T09:30:06.197Z,9.80
2023-04-19T09:32:49.565Z,10.15
2023-04-19T09:35:18.055Z,9.00
2023-04-19T09:38:05.861Z,9.35
2023-04-19T09:43:23.054Z,8.68
2023-04-19T09:45:52.299Z,9.95
2023-04-19T09:48:20.618Z,9.00
2023-04-19T09:50:57.374Z,9.30
2023-04-19T09:53:31.138Z,8.65
2023-04-19T09:56:02.286Z,8.50
2023-04-19T09:58:46.307Z,9.25
2023-04-19T10:01:20.541Z,8.50
2023-04-19T10:03:50.916Z,8.25
2023-04-19T10:08:54.054Z,7.72
2023-04-19T10:11:22.815Z,7.55
2023-04-19T10:16:24.683Z,7.63
2023-04-19T10:18:54.493Z,8.00
2023-04-19T10:21:23.316Z,8.65
2023-04-19T10:26:19.469Z,8.07
2023-04-19T10:28:48.668Z,8.93
2023-04-19T10:31:20.037Z,8.18
2023-04-19T10:33:51.825Z,7.75
2023-04-19T10:36:22.878Z,7.65
2023-04-19T10:38:52.142Z,7.10
2023-04-19T10:41:20.665Z,7.68
2023-04-19T10:44:12.207Z,7.28
2023-04-19T10:46:40.885Z,8.23
2023-04-19T10:51:39.252Z,8.10
2023-04-19T10:54:26.958Z,6.93
2023-04-19T10:57:05.820Z,7.17
2023-04-19T10:59:38.220Z,7.57
2023-04-19T11:02:26.545Z,7.20
2023-04-19T11:07:22.976Z,6.85
2023-04-19T11:09:51.750Z,7.38
2023-04-19T11:12:21.483Z,7.10
2023-04-19T11:14:59.452Z,5.93
2023-04-19T11:17:33.038Z,7.80
2023-04-19T11:20:03.102Z,7.32
2023-04-19T11:22:34.306Z,7.93
2023-04-19T11:25:11.751Z,6.25
2023-04-19T11:27:41.965Z,5.95
2023-04-19T11:30:12.485Z,6.60
2023-04-19T11:33:01.268Z,6.95
2023-04-19T11:38:00.182Z,5.95
2023-04-19T11:40:28.429Z,6.10
2023-04-19T11:43:01.911Z,5.78
2023-04-19T11:45:35.384Z,6.20
2023-04-19T11:48:06.346Z,6.15
2023-04-19T11:50:36.257Z,5.63
2023-04-19T11:53:24.821Z,6.25
2023-04-19T11:56:09.587Z,6.60
2023-04-19T11:58:44.671Z,6.60
2023-04-19T12:01:17.427Z,6.57
2023-04-19T12:04:05.290Z,5.65
2023-04-19T12:06:33.714Z,6.35
2023-04-19T12:09:08.891Z,6.47
2023-04-19T12:11:45.067Z,6.50
2023-04-19T12:14:15.634Z,6.88
2023-04-19T12:16:44.298Z,5.90
2023-04-19T12:19:18.249Z,5.95
2023-04-19T12:21:47.824Z,5.88
2023-04-19T12:24:17.015Z,5.88
2023-04-19T12:26:57.141Z,5.40
2023-04-19T12:29:25.493Z,5.75
2023-04-19T12:32:52.277Z,5.43
2023-04-19T12:35:20.613Z,5.35
2023-04-19T12:37:48.703Z,5.82
2023-04-19T12:40:17.089Z,5.20
2023-04-19T12:42:45.323Z,5.70
2023-04-19T12:45:14.927Z,6.18
2023-04-19T12:47:44.240Z,5.32
2023-04-19T12:50:14.485Z,4.78
2023-04-19T12:52:45.152Z,5.00
2023-04-19T12:55:16.349Z,5.20
2023-04-19T12:57:44.571Z,5.80
2023-04-19T13:00:13.099Z,5.25
2023-04-19T13:02:41.540Z,6.00
2023-04-19T13:05:10.162Z,5.10
2023-04-19T13:07:38.849Z,5.43
2023-04-19T13:10:07.900Z,5.97
2023-04-19T13:12:37.304Z,5.45
2023-04-19T13:15:06.103Z,5.53
2023-04-19T13:17:36.394Z,5.50
2023-04-19T13:20:05.715Z,4.60
2023-04-19T13:22:34.080Z,4.75
2023-04-19T13:25:02.661Z,5.45
2023-04-19T13:27:31.181Z,4.82
2023-04-19T13:29:59.628Z,4.88
2023-04-19T13:32:27.981Z,4.50
2023-04-19T13:34:56.352Z,5.55
2023-04-19T13:37:24.905Z,5.03
2023-04-19T13:39:55.113Z,5.82
2023-04-19T13:42:27.312Z,5.22
2023-04-19T13:44:55.389Z,4.75
2023-04-19T13:47:23.650Z,4.70
2023-04-19T13:49:52.020Z,4.57
2023-04-19T13:52:20.841Z,4.35
2023-04-19T22:22:00.922Z,2.60
2023-04-19T22:24:29.182Z,2.80
2023-04-19T22:26:57.209Z,2.47
2023-04-19T22:29:25.568Z,2.22
2023-04-19T22:31:53.772Z,2.63
2023-04-19T22:34:22.105Z,2.88
2023-04-19T22:36:50.270Z,2.38
2023-04-19T22:39:18.590Z,2.47
2023-04-19T22:41:46.809Z,2.90
2023-04-19T22:44:15.264Z,2.85
2023-04-19T22:46:43.343Z,2.83
2023-04-19T22:49:11.581Z,3.28
2023-04-19T22:51:39.825Z,2.70
2023-04-19T22:54:08.511Z,2.63
2023-04-19T22:56:36.601Z,2.00
2023-04-19T22:59:04.951Z,2.42
2023-04-19T23:01:33.098Z,2.97
2023-04-19T23:04:01.448Z,1.80
2023-04-19T23:06:29.636Z,2.47
2023-04-19T23:08:57.825Z,2.22
2023-04-19T23:11:26.006Z,2.17
2023-04-19T23:13:54.371Z,2.38
2023-04-19T23:16:26.006Z,2.45
2023-04-19T23:18:54.507Z,2.10
2023-04-19T23:21:22.654Z,2.72
2023-04-19T23:23:51.302Z,2.40
2023-04-19T23:26:19.480Z,1.92
2023-04-19T23:28:47.675Z,2.28
2023-04-19T23:31:15.957Z,1.95
2023-04-19T23:33:44.226Z,2.63
2023-04-19T23:36:12.530Z,2.40
2023-04-19T23:38:40.717Z,2.03
2023-04-19T23:41:11.292Z,2.45
2023-04-19T23:43:39.719Z,1.90
2023-04-19T23:46:08.240Z,2.35
2023-04-19T23:48:36.538Z,1.80
2023-04-19T23:51:05.708Z,2.08
2023-04-19T23:53:33.761Z,1.92
2023-04-19T23:56:02.027Z,1.77
2023-04-19T23:58:30.137Z,1.75
